createdAt,value
2024-05-09T00:00:22.071Z,892.50
2024-05-09T00:01:15.062Z,925.90
2024-05-09T00:02:15.013Z,805.00
2024-05-09T00:03:15.056Z,811.50
2024-05-09T00:04:15.058Z,805.80
2024-05-09T00:05:15.605Z,884.50
2024-05-09T00:06:14.982Z,849.50
2024-05-09T00:07:14.932Z,867.50
2024-05-09T00:08:14.951Z,902.40
2024-05-09T00:09:14.907Z,671.30
2024-05-09T00:10:22.689Z,808.30
2024-05-09T00:11:14.942Z,892.70
2024-05-09T00:12:14.958Z,840.00
2024-05-09T00:13:14.860Z,729.00
2024-05-09T00:14:14.894Z,583.90
2024-05-09T00:15:14.824Z,685.30
2024-05-09T00:16:14.824Z,627.00
2024-05-09T00:17:14.850Z,741.80
2024-05-09T00:18:14.952Z,573.40
2024-05-09T00:19:15.748Z,258.70
2024-05-09T00:20:20.528Z,385.90
2024-05-09T00:21:14.763Z,322.80
2024-05-09T00:22:14.740Z,378.80
2024-05-09T00:23:15.666Z,348.50
2024-05-09T00:24:15.605Z,279.90
2024-05-09T00:25:15.603Z,367.40
2024-05-09T00:26:14.852Z,326.20
2024-05-09T00:27:14.773Z,362.40
2024-05-09T00:28:14.709Z,384.20
2024-05-09T00:29:15.590Z,350.70
2024-05-09T00:30:21.545Z,381.20
2024-05-09T00:31:14.595Z,370.10
2024-05-09T00:32:15.348Z,383.00
2024-05-09T00:33:14.813Z,426.60
2024-05-09T00:34:14.614Z,398.40
2024-05-09T00:35:14.566Z,479.40
2024-05-09T00:36:14.527Z,473.30
2024-05-09T00:37:14.538Z,409.50
2024-05-09T00:38:14.542Z,516.90
2024-05-09T00:39:14.504Z,528.40
2024-05-09T00:40:22.476Z,522.70
2024-05-09T00:41:16.341Z,507.70
2024-05-09T00:42:14.453Z,523.60
2024-05-09T00:43:15.308Z,559.70
2024-05-09T00:44:14.513Z,535.80
2024-05-09T00:45:14.404Z,539.20
2024-05-09T00:46:14.435Z,528.40
2024-05-09T00:47:14.543Z,572.70
2024-05-09T00:48:17.379Z,550.40
2024-05-09T00:49:14.494Z,555.70
2024-05-09T00:50:19.382Z,566.00
2024-05-09T00:51:14.514Z,584.90
2024-05-09T00:52:14.325Z,594.50
2024-05-09T00:53:14.619Z,591.90
2024-05-09T00:54:14.277Z,586.30
2024-05-09T00:55:14.294Z,582.00
2024-05-09T00:56:14.883Z,613.60
2024-05-09T00:57:14.251Z,570.40
2024-05-09T00:58:14.238Z,587.70
2024-05-09T00:59:14.246Z,602.00
2024-05-09T01:00:22.655Z,599.00
2024-05-09T01:01:14.225Z,623.50
2024-05-09T01:02:14.306Z,599.00
2024-05-09T01:03:14.696Z,638.10
2024-05-09T01:04:14.167Z,622.60
2024-05-09T01:05:14.279Z,603.80
2024-05-09T01:06:14.129Z,604.00
2024-05-09T01:07:15.023Z,646.60
2024-05-09T01:08:14.132Z,643.20
2024-05-09T01:09:14.126Z,634.80
2024-05-09T01:10:20.930Z,615.80
2024-05-09T01:11:14.119Z,648.40
2024-05-09T01:12:15.176Z,657.10
2024-05-09T01:13:19.023Z,629.30
2024-05-09T01:14:14.055Z,652.20
2024-05-09T01:15:14.087Z,650.10
2024-05-09T01:16:14.000Z,667.90
2024-05-09T01:17:14.067Z,646.20
2024-05-09T01:18:16.667Z,619.50
2024-05-09T01:19:14.688Z,574.20
2024-05-09T01:20:20.154Z,443.20
2024-05-09T01:21:14.332Z,930.10
2024-05-09T01:22:13.990Z,807.70
2024-05-09T01:23:16.221Z,544.80
2024-05-09T01:24:13.892Z,530.70
2024-05-09T01:25:14.852Z,426.80
2024-05-09T01:26:13.883Z,814.60
2024-05-09T01:27:14.016Z,948.70
2024-05-09T01:28:13.891Z,506.70
2024-05-09T01:29:14.388Z,515.90
2024-05-09T01:30:17.440Z,321.60
2024-05-09T01:31:13.808Z,754.20
2024-05-09T01:32:13.868Z,541.50
2024-05-09T01:33:14.338Z,613.00
2024-05-09T01:34:13.843Z,439.10
2024-05-09T01:35:13.799Z,394.10
2024-05-09T01:36:13.708Z,452.30
2024-05-09T01:37:13.744Z,643.20
2024-05-09T01:38:14.233Z,860.40
2024-05-09T01:39:13.725Z,800.50
2024-05-09T01:40:18.545Z,885.90
2024-05-09T01:41:13.661Z,688.60
2024-05-09T01:42:13.653Z,881.00
2024-05-09T01:43:13.636Z,595.20
2024-05-09T01:44:13.680Z,446.10
2024-05-09T01:45:13.647Z,695.50
2024-05-09T01:46:13.626Z,892.80
2024-05-09T01:47:13.644Z,426.30
2024-05-09T01:48:13.736Z,434.00
2024-05-09T01:49:13.736Z,386.50
2024-05-09T01:50:16.577Z,483.40
2024-05-09T01:51:13.605Z,434.60
2024-05-09T01:52:13.514Z,415.70
2024-05-09T01:53:14.373Z,450.20
2024-05-09T01:54:13.496Z,470.90
2024-05-09T01:55:13.511Z,505.20
2024-05-09T01:56:13.557Z,510.10
2024-05-09T01:57:13.429Z,522.20
2024-05-09T01:58:14.068Z,522.50
2024-05-09T01:59:13.432Z,478.50
2024-05-09T02:00:18.819Z,536.50
2024-05-09T02:01:14.349Z,506.10
2024-05-09T02:02:13.581Z,508.60
2024-05-09T02:03:16.224Z,546.20
2024-05-09T02:04:13.479Z,560.40
2024-05-09T02:05:13.445Z,512.60
2024-05-09T02:06:13.349Z,589.70
2024-05-09T02:07:13.300Z,540.40
2024-05-09T02:08:13.378Z,562.60
2024-05-09T02:09:13.274Z,574.20
2024-05-09T02:10:20.191Z,556.80
2024-05-09T02:11:13.467Z,582.30
2024-05-09T02:12:13.387Z,568.80
2024-05-09T02:13:13.230Z,586.20
2024-05-09T02:14:13.250Z,626.40
2024-05-09T02:15:13.198Z,661.70
2024-05-09T02:16:13.175Z,682.00
2024-05-09T02:17:14.993Z,682.00
2024-05-09T02:18:13.736Z,662.00
2024-05-09T02:19:13.305Z,645.70
2024-05-09T02:20:18.964Z,601.10
2024-05-09T02:21:13.242Z,656.30
2024-05-09T02:22:13.101Z,627.30
2024-05-09T02:23:13.198Z,640.40
2024-05-09T02:24:13.070Z,505.10
2024-05-09T02:25:13.090Z,611.60
2024-05-09T02:26:13.151Z,627.10
2024-05-09T02:27:13.029Z,629.90
2024-05-09T02:28:13.007Z,555.80
2024-05-09T02:29:13.028Z,615.50
2024-05-09T02:30:19.071Z,612.60
2024-05-09T02:31:12.981Z,536.10
2024-05-09T02:32:13.072Z,623.80
2024-05-09T02:33:14.383Z,674.20
2024-05-09T02:34:13.118Z,626.10
2024-05-09T02:35:12.977Z,528.70
2024-05-09T02:36:12.907Z,673.80
2024-05-09T02:37:12.958Z,633.60
2024-05-09T02:38:13.526Z,659.00
2024-05-09T02:39:12.867Z,673.20
2024-05-09T02:40:14.983Z,647.70
2024-05-09T02:41:12.954Z,469.50
2024-05-09T02:42:12.822Z,645.30
2024-05-09T02:43:13.305Z,655.40
2024-05-09T02:44:12.802Z,682.40
2024-05-09T02:45:12.792Z,708.00
2024-05-09T02:46:12.762Z,725.10
2024-05-09T02:47:12.985Z,692.60
2024-05-09T02:48:13.705Z,712.30
2024-05-09T02:49:12.807Z,696.10
2024-05-09T02:50:16.213Z,679.10
2024-05-09T02:51:12.712Z,645.20
2024-05-09T02:52:12.700Z,857.70
2024-05-09T02:53:13.134Z,959.70
2024-05-09T02:54:12.670Z,984.60
2024-05-09T02:55:12.652Z,793.80
2024-05-09T02:56:12.694Z,853.30
2024-05-09T02:57:12.726Z,846.00
2024-05-09T02:58:12.643Z,947.20
2024-05-09T02:59:12.612Z,978.50
2024-05-09T03:00:19.007Z,714.90
2024-05-09T03:01:12.631Z,933.40
2024-05-09T03:02:12.631Z,896.50
2024-05-09T03:03:14.657Z,664.40
2024-05-09T03:04:12.560Z,841.10
2024-05-09T03:05:12.542Z,813.30
2024-05-09T03:06:12.495Z,889.10
2024-05-09T03:07:12.494Z,769.80
2024-05-09T03:08:12.750Z,639.80
2024-05-09T03:09:12.516Z,858.10
2024-05-09T03:10:18.582Z,891.60
2024-05-09T03:11:12.582Z,597.20
2024-05-09T03:12:12.664Z,752.20
2024-05-09T03:13:13.537Z,627.20
2024-05-09T03:14:12.422Z,705.60
2024-05-09T03:15:12.386Z,556.40
2024-05-09T03:16:12.400Z,780.70
2024-05-09T03:17:12.383Z,531.00
2024-05-09T03:18:12.937Z,554.20
2024-05-09T03:19:12.801Z,202.20
2024-05-09T03:20:20.355Z,379.70
2024-05-09T03:21:12.354Z,381.60
2024-05-09T03:22:12.290Z,160.60
2024-05-09T03:23:12.504Z,239.70
2024-05-09T03:24:12.249Z,226.20
2024-05-09T03:25:12.243Z,211.40
2024-05-09T03:26:12.346Z,225.70
2024-05-09T03:27:14.417Z,186.90
2024-05-09T03:28:12.207Z,204.40
2024-05-09T03:29:13.154Z,255.60
2024-05-09T03:31:12.159Z,268.80
2024-05-09T03:32:12.363Z,295.10
2024-05-09T03:33:13.604Z,262.80
2024-05-09T03:34:12.336Z,334.00
2024-05-09T03:35:13.021Z,313.20
2024-05-09T03:36:13.036Z,321.20
2024-05-09T03:37:12.147Z,317.70
2024-05-09T03:38:12.408Z,352.90
2024-05-09T03:39:12.144Z,312.80
2024-05-09T03:40:20.404Z,312.20
2024-05-09T03:41:12.139Z,336.00
2024-05-09T03:42:12.150Z,351.40
2024-05-09T03:43:12.126Z,391.50
2024-05-09T03:44:12.066Z,379.00
2024-05-09T03:45:11.994Z,394.90
2024-05-09T03:46:11.956Z,402.80
2024-05-09T03:47:12.171Z,372.90
2024-05-09T03:48:12.247Z,335.20
2024-05-09T03:49:12.116Z,427.40
2024-05-09T03:50:18.362Z,404.10
2024-05-09T03:51:12.128Z,428.30
2024-05-09T03:52:11.875Z,458.40
2024-05-09T03:53:11.921Z,423.20
2024-05-09T03:54:11.893Z,450.50
2024-05-09T03:55:11.840Z,445.70
2024-05-09T03:56:12.785Z,477.30
2024-05-09T03:57:11.841Z,433.60
2024-05-09T03:58:11.799Z,501.40
2024-05-09T03:59:11.855Z,489.10
2024-05-09T04:00:17.914Z,477.50
2024-05-09T04:01:11.819Z,467.00
2024-05-09T04:02:11.886Z,483.20
2024-05-09T04:03:13.147Z,516.50
2024-05-09T04:04:11.781Z,525.30
2024-05-09T04:05:11.765Z,495.30
2024-05-09T04:06:11.720Z,503.70
2024-05-09T04:07:11.679Z,512.70
2024-05-09T04:08:11.915Z,565.70
2024-05-09T04:09:11.664Z,530.60
2024-05-09T04:10:20.925Z,543.50
2024-05-09T04:11:12.721Z,528.00
2024-05-09T04:12:11.649Z,559.20
2024-05-09T04:13:11.583Z,497.30
2024-05-09T04:14:11.632Z,514.10
2024-05-09T04:15:13.616Z,546.10
2024-05-09T04:16:11.552Z,579.80
2024-05-09T04:17:12.552Z,975.90
2024-05-09T04:18:11.571Z,662.10
2024-05-09T04:19:11.679Z,912.00
2024-05-09T04:20:21.113Z,899.20
2024-05-09T04:21:11.568Z,518.00
2024-05-09T04:22:11.506Z,890.20
2024-05-09T04:23:11.931Z,778.30
2024-05-09T04:24:11.464Z,777.30
2024-05-09T04:25:12.285Z,753.20
2024-05-09T04:26:11.484Z,881.00
2024-05-09T04:27:11.479Z,795.90
2024-05-09T04:28:11.382Z,469.90
2024-05-09T04:29:11.454Z,913.40
2024-05-09T04:30:18.884Z,705.50
2024-05-09T04:31:11.347Z,925.60
2024-05-09T04:32:11.394Z,547.70
2024-05-09T04:33:13.355Z,901.50
2024-05-09T04:34:11.363Z,425.70
2024-05-09T04:35:11.308Z,773.40
2024-05-09T04:36:11.343Z,734.70
2024-05-09T04:37:11.919Z,821.80
2024-05-09T04:38:12.025Z,472.40
2024-05-09T04:39:11.278Z,412.30
2024-05-09T04:40:20.942Z,301.20
2024-05-09T04:41:11.290Z,387.20
2024-05-09T04:42:11.203Z,645.20
2024-05-09T04:43:11.209Z,498.40
2024-05-09T04:44:11.280Z,623.80
2024-05-09T04:45:11.212Z,531.40
2024-05-09T04:46:11.139Z,459.00
2024-05-09T04:47:11.250Z,629.60
2024-05-09T04:48:11.596Z,606.30
2024-05-09T04:49:11.279Z,502.50
2024-05-09T04:50:14.564Z,721.90
2024-05-09T04:51:11.190Z,531.90
2024-05-09T04:52:11.059Z,488.00
2024-05-09T04:53:11.673Z,446.70
2024-05-09T04:54:22.102Z,409.40
2024-05-09T04:55:11.036Z,467.00
2024-05-09T04:56:12.057Z,495.50
2024-05-09T04:57:11.020Z,539.90
2024-05-09T04:58:10.986Z,567.00
2024-05-09T04:59:10.992Z,593.50
2024-05-09T05:00:14.901Z,554.30
2024-05-09T05:01:11.098Z,647.80
2024-05-09T05:02:11.990Z,641.40
2024-05-09T05:03:13.636Z,567.90
2024-05-09T05:04:10.991Z,530.70
2024-05-09T05:05:12.140Z,571.50
2024-05-09T05:06:10.931Z,636.30
2024-05-09T05:07:10.884Z,692.90
2024-05-09T05:08:10.869Z,642.90
2024-05-09T05:09:10.873Z,651.30
2024-05-09T05:10:15.028Z,672.30
2024-05-09T05:11:10.928Z,678.70
2024-05-09T05:12:10.951Z,702.60
2024-05-09T05:13:10.775Z,763.60
2024-05-09T05:14:10.836Z,734.30
2024-05-09T05:15:10.762Z,748.20
2024-05-09T05:16:10.758Z,795.80
2024-05-09T05:17:11.430Z,764.90
2024-05-09T05:18:11.445Z,809.60
2024-05-09T05:19:13.519Z,795.00
2024-05-09T05:20:15.204Z,794.40
2024-05-09T05:21:10.727Z,847.40
2024-05-09T05:22:11.418Z,879.50
2024-05-09T05:23:10.684Z,864.60
2024-05-09T05:24:10.631Z,877.10
2024-05-09T05:25:10.630Z,901.10
2024-05-09T05:26:10.635Z,862.10
2024-05-09T05:27:10.622Z,919.80
2024-05-09T05:28:10.718Z,920.40
2024-05-09T05:29:10.612Z,937.30
2024-05-09T05:30:17.558Z,899.50
2024-05-09T05:31:10.575Z,932.40
2024-05-09T05:32:11.525Z,911.40
2024-05-09T05:33:10.656Z,965.80
2024-05-09T05:34:11.413Z,972.50
2024-05-09T05:35:10.639Z,917.70
2024-05-09T05:36:11.244Z,904.40
2024-05-09T05:37:12.380Z,818.50
2024-05-09T05:38:10.601Z,831.80
2024-05-09T05:39:10.462Z,858.50
2024-05-09T05:40:14.619Z,824.10
2024-05-09T05:41:10.477Z,765.40
2024-05-09T05:42:10.374Z,764.90
2024-05-09T05:43:10.884Z,676.10
2024-05-09T05:44:10.424Z,669.50
2024-05-09T05:45:10.378Z,757.70
2024-05-09T05:46:10.334Z,754.30
2024-05-09T05:47:10.394Z,726.80
2024-05-09T05:48:10.423Z,701.10
2024-05-09T05:49:10.538Z,698.00
2024-05-09T05:50:20.700Z,685.60
2024-05-09T05:51:10.356Z,784.40
2024-05-09T05:52:10.250Z,674.00
2024-05-09T05:53:10.734Z,651.20
2024-05-09T05:54:10.210Z,685.90
2024-05-09T05:55:10.219Z,636.00
2024-05-09T05:56:10.258Z,705.50
2024-05-09T05:57:10.226Z,709.30
2024-05-09T05:58:10.177Z,687.30
2024-05-09T05:59:12.011Z,714.90
2024-05-09T06:00:15.122Z,763.30
2024-05-09T06:01:10.251Z,765.00
2024-05-09T06:02:10.976Z,853.30
2024-05-09T06:03:10.972Z,895.30
2024-05-09T06:04:10.214Z,732.00
2024-05-09T06:05:10.247Z,739.00
2024-05-09T06:06:10.134Z,771.40
2024-05-09T06:07:10.116Z,700.20
2024-05-09T06:08:10.895Z,757.20
2024-05-09T06:09:10.995Z,781.30
2024-05-09T06:10:17.360Z,791.40
2024-05-09T06:11:10.981Z,788.20
2024-05-09T06:12:11.921Z,808.50
2024-05-09T06:13:11.541Z,895.10
2024-05-09T06:14:09.977Z,872.10
2024-05-09T06:15:10.091Z,877.20
2024-05-09T06:16:09.938Z,916.10
2024-05-09T06:17:10.234Z,900.70
2024-05-09T06:18:11.275Z,856.70
2024-05-09T06:19:09.968Z,824.10
2024-05-09T06:20:20.097Z,852.10
2024-05-09T06:21:10.739Z,855.60
2024-05-09T06:22:10.467Z,860.40
2024-05-09T06:23:10.517Z,890.30
2024-05-09T06:24:09.843Z,804.40
2024-05-09T06:25:09.826Z,892.80
2024-05-09T06:26:09.892Z,905.80
2024-05-09T06:27:09.772Z,927.00
2024-05-09T06:28:09.788Z,903.60
2024-05-09T06:29:09.773Z,790.20
2024-05-09T06:30:14.455Z,766.00
2024-05-09T06:31:09.726Z,707.60
2024-05-09T06:32:09.803Z,740.80
2024-05-09T06:33:11.176Z,691.10
2024-05-09T06:34:09.885Z,724.20
2024-05-09T06:35:09.793Z,741.70
2024-05-09T06:36:09.677Z,717.90
2024-05-09T06:37:09.654Z,720.80
2024-05-09T06:38:09.980Z,763.60
2024-05-09T06:39:09.609Z,735.70
2024-05-09T06:40:09.976Z,734.00
2024-05-09T06:41:09.638Z,724.60
2024-05-09T06:42:09.608Z,771.90
2024-05-09T06:43:09.563Z,836.00
2024-05-09T06:44:09.577Z,849.70
2024-05-09T06:45:10.461Z,850.80
2024-05-09T06:46:09.533Z,852.50
2024-05-09T06:47:09.650Z,889.30
2024-05-09T06:48:11.700Z,896.70
2024-05-09T06:49:09.639Z,896.60
2024-05-09T06:50:19.589Z,913.50
2024-05-09T06:51:09.606Z,919.30
2024-05-09T06:52:09.434Z,879.10
2024-05-09T06:53:09.851Z,855.90
2024-05-09T06:54:09.443Z,878.10
2024-05-09T06:55:09.397Z,870.90
2024-05-09T06:56:09.991Z,872.20
2024-05-09T06:57:09.368Z,876.00
2024-05-09T06:58:09.656Z,890.80
2024-05-09T06:59:09.377Z,889.40
2024-05-09T07:00:15.487Z,770.60
2024-05-09T07:01:09.428Z,857.10
2024-05-09T07:02:09.383Z,867.40
2024-05-09T07:03:09.961Z,866.30
2024-05-09T07:04:09.597Z,872.60
2024-05-09T07:05:09.340Z,876.90
2024-05-09T07:06:09.316Z,868.30
2024-05-09T07:07:09.249Z,856.20
2024-05-09T07:08:09.398Z,865.70
2024-05-09T07:09:09.214Z,855.50
2024-05-09T07:10:17.766Z,850.00
2024-05-09T07:11:09.281Z,811.40
2024-05-09T07:12:10.479Z,836.80
2024-05-09T07:13:09.145Z,871.40
2024-05-09T07:14:09.177Z,809.50
2024-05-09T07:15:09.131Z,816.10
2024-05-09T07:16:10.889Z,831.10
2024-05-09T07:17:09.345Z,799.40
2024-05-09T07:18:09.379Z,725.00
2024-05-09T07:19:09.395Z,735.70
2024-05-09T07:20:11.775Z,777.70
2024-05-09T07:21:09.065Z,776.30
2024-05-09T07:22:09.027Z,767.80
2024-05-09T07:23:09.103Z,722.90
2024-05-09T07:24:09.053Z,705.40
2024-05-09T07:25:09.019Z,783.80
2024-05-09T07:26:09.088Z,782.50
2024-05-09T07:27:08.985Z,775.30
2024-05-09T07:28:10.862Z,702.00
2024-05-09T07:29:10.746Z,668.40
2024-05-09T07:30:11.555Z,715.90
2024-05-09T07:31:08.942Z,698.80
2024-05-09T07:32:08.959Z,692.30
2024-05-09T07:33:09.161Z,719.30
2024-05-09T07:34:08.928Z,697.10
2024-05-09T07:35:08.884Z,767.90
2024-05-09T07:36:08.868Z,692.50
2024-05-09T07:37:08.842Z,715.70
2024-05-09T07:38:08.884Z,543.20
2024-05-09T07:39:08.805Z,637.20
2024-05-09T07:40:12.004Z,500.50
2024-05-09T07:41:08.791Z,689.60
2024-05-09T07:42:08.832Z,718.20
2024-05-09T07:43:08.778Z,660.50
2024-05-09T07:44:08.748Z,623.30
2024-05-09T07:45:29.581Z,638.20
2024-05-09T07:47:13.780Z,681.20
2024-05-09T07:50:34.101Z,775.00
2024-05-09T07:53:32.465Z,830.20
2024-05-09T07:53:49.488Z,624.40
2024-05-09T07:54:00.532Z,649.70
2024-05-09T07:54:56.458Z,620.20
2024-05-09T07:55:56.855Z,530.90
2024-05-09T07:56:56.445Z,529.60
2024-05-09T07:57:56.369Z,719.40
2024-05-09T07:58:56.413Z,690.20
2024-05-09T07:59:56.833Z,622.40
2024-05-09T08:00:57.538Z,599.20
2024-05-09T08:01:56.183Z,736.10
2024-05-09T08:02:58.887Z,748.90
2024-05-09T08:03:56.420Z,747.50
2024-05-09T08:04:57.965Z,617.70
2024-05-09T08:05:56.035Z,835.80
2024-05-09T08:06:56.063Z,600.70
2024-05-09T08:07:56.882Z,813.90
2024-05-09T08:08:56.873Z,522.00
2024-05-09T08:09:56.049Z,540.20
2024-05-09T08:10:56.715Z,618.00
2024-05-09T08:11:55.977Z,548.60
2024-05-09T08:12:55.951Z,537.90
2024-05-09T08:13:55.866Z,426.10
2024-05-09T08:14:55.839Z,483.00
2024-05-09T08:15:55.956Z,586.50
2024-05-09T08:16:55.866Z,312.30
2024-05-09T08:17:56.384Z,358.10
2024-05-09T08:18:55.982Z,289.70
2024-05-09T08:19:55.791Z,197.70
2024-05-09T08:20:55.764Z,309.30
2024-05-09T08:21:55.816Z,260.80
2024-05-09T08:22:56.901Z,385.40
2024-05-09T08:23:55.725Z,295.00
2024-05-09T08:24:55.788Z,538.80
2024-05-09T08:25:55.747Z,442.20
2024-05-09T08:26:56.332Z,482.10
2024-05-09T08:27:56.982Z,607.40
2024-05-09T08:28:56.864Z,587.40
2024-05-09T08:29:55.705Z,617.80
2024-05-09T08:30:55.763Z,593.90
2024-05-09T08:31:55.736Z,595.80
2024-05-09T08:32:55.794Z,608.90
2024-05-09T08:33:55.816Z,616.40
2024-05-09T08:34:56.183Z,695.30
2024-05-09T08:35:55.572Z,3.20
2024-05-09T08:36:57.725Z,3.60
2024-05-09T08:37:56.050Z,3.50
2024-05-09T08:38:56.355Z,3.90
2024-05-09T08:39:56.541Z,4.60
2024-05-09T08:40:56.453Z,5.70
2024-05-09T08:41:56.424Z,4.00
2024-05-09T08:42:56.545Z,4.50
2024-05-09T08:43:56.442Z,9.00
2024-05-09T08:44:56.372Z,6.80
2024-05-09T08:45:56.479Z,5.20
2024-05-09T08:46:56.877Z,4.00
2024-05-09T08:47:56.398Z,5.60
2024-05-09T08:48:56.115Z,6.00
2024-05-09T08:49:55.460Z,7.20
2024-05-09T08:50:55.424Z,6.80
2024-05-09T08:51:55.376Z,6.10
2024-05-09T08:52:55.382Z,6.40
2024-05-09T08:53:55.374Z,5.40
2024-05-09T08:54:55.383Z,3.70
2024-05-09T08:55:55.301Z,4.70
2024-05-09T08:56:55.819Z,4.00
2024-05-09T08:57:55.362Z,6.00
2024-05-09T08:58:55.259Z,4.70
2024-05-09T08:59:55.279Z,3.50
2024-05-09T09:00:56.025Z,6.00
2024-05-09T09:01:55.386Z,4.10
2024-05-09T09:02:55.321Z,4.70
2024-05-09T09:03:55.400Z,4.20
2024-05-09T09:04:55.260Z,5.50
2024-05-09T09:05:55.194Z,5.60
2024-05-09T09:06:57.715Z,5.20
2024-05-09T09:07:55.213Z,4.60
2024-05-09T09:08:56.423Z,5.80
2024-05-09T09:09:55.170Z,6.10
2024-05-09T09:10:55.887Z,4.70
2024-05-09T09:11:55.267Z,6.80
2024-05-09T09:12:55.132Z,6.10
2024-05-09T09:13:55.094Z,5.90
2024-05-09T09:14:56.826Z,6.70
2024-05-09T09:15:55.106Z,5.30
2024-05-09T09:16:55.042Z,6.50
2024-05-09T09:17:55.073Z,6.20
2024-05-09T09:18:55.244Z,8.10
2024-05-09T09:19:55.083Z,7.40
2024-05-09T09:20:55.182Z,8.20
2024-05-09T09:21:55.005Z,6.70
2024-05-09T09:22:54.982Z,8.80
2024-05-09T09:23:55.363Z,9.00
2024-05-09T09:24:54.970Z,7.20
2024-05-09T09:25:54.916Z,10.20
2024-05-09T09:26:54.967Z,9.70
2024-05-09T09:27:55.022Z,8.20
2024-05-09T09:28:54.891Z,8.20
2024-05-09T09:29:54.906Z,10.60
2024-05-09T09:30:54.897Z,11.40
2024-05-09T09:31:54.856Z,9.30
2024-05-09T09:32:54.878Z,8.40
2024-05-09T09:33:55.145Z,9.40
2024-05-09T09:34:55.763Z,9.40
2024-05-09T09:35:54.798Z,7.90
2024-05-09T09:36:54.826Z,7.70
2024-05-09T09:37:54.870Z,10.30
2024-05-09T09:38:54.805Z,8.40
2024-05-09T09:39:55.375Z,9.50
2024-05-09T09:40:54.819Z,10.00
2024-05-09T09:41:54.718Z,10.00
2024-05-09T09:42:55.586Z,10.30
2024-05-09T09:43:54.777Z,10.20
2024-05-09T09:45:03.734Z,9.50
2024-05-09T09:45:54.803Z,11.60
2024-05-09T09:46:54.759Z,10.80
2024-05-09T09:47:54.731Z,12.00
2024-05-09T09:48:54.777Z,17.10
2024-05-09T09:49:54.722Z,9.10
2024-05-09T09:50:54.648Z,14.80
2024-05-09T09:51:54.679Z,9.90
2024-05-09T09:52:54.597Z,11.80
2024-05-09T09:53:54.603Z,9.70
2024-05-09T09:54:54.811Z,12.20
2024-05-09T09:55:54.557Z,11.90
2024-05-09T09:56:54.560Z,12.40
2024-05-09T09:57:54.573Z,9.20
2024-05-09T09:58:54.546Z,11.60
2024-05-09T09:59:54.530Z,10.60
2024-05-09T10:00:54.681Z,10.10
2024-05-09T10:01:54.535Z,9.60
2024-05-09T10:02:54.502Z,11.20
2024-05-09T10:03:55.515Z,11.00
2024-05-09T10:04:54.966Z,13.10
2024-05-09T10:05:54.494Z,12.40
2024-05-09T10:06:54.890Z,10.20
2024-05-09T10:07:54.427Z,11.20
2024-05-09T10:08:54.420Z,11.50
2024-05-09T10:09:54.429Z,12.30
2024-05-09T10:10:55.122Z,13.30
2024-05-09T10:11:59.891Z,12.50
2024-05-09T10:12:54.440Z,11.60
2024-05-09T10:13:55.308Z,13.40
2024-05-09T10:14:54.373Z,9.10
2024-05-09T10:15:54.758Z,16.80
2024-05-09T10:16:56.314Z,14.30
2024-05-09T10:17:54.419Z,13.60
2024-05-09T10:18:54.516Z,13.00
2024-05-09T10:19:54.324Z,15.10
2024-05-09T10:20:54.945Z,16.70
2024-05-09T10:21:54.979Z,15.40
2024-05-09T10:22:54.275Z,10.20
2024-05-09T10:23:54.251Z,16.10
2024-05-09T10:24:55.245Z,15.30
2024-05-09T10:25:54.256Z,14.90
2024-05-09T10:26:54.930Z,16.30
2024-05-09T10:27:54.983Z,13.00
2024-05-09T10:28:54.846Z,16.20
2024-05-09T10:29:54.926Z,13.80
2024-05-09T10:30:54.952Z,13.90
2024-05-09T10:31:54.168Z,13.10
2024-05-09T10:32:54.289Z,17.40
2024-05-09T10:33:54.559Z,14.80
2024-05-09T10:34:54.798Z,13.80
2024-05-09T10:35:54.818Z,13.00
2024-05-09T10:36:54.183Z,15.60
2024-05-09T10:37:54.066Z,16.10
2024-05-09T10:38:54.039Z,14.10
2024-05-09T10:39:54.087Z,11.60
2024-05-09T10:40:54.860Z,18.50
2024-05-09T10:41:54.019Z,15.50
2024-05-09T10:42:54.165Z,15.20
2024-05-09T10:43:53.999Z,13.50
2024-05-09T10:44:53.973Z,16.40
2024-05-09T10:45:53.992Z,14.50
2024-05-09T10:46:54.006Z,15.30
2024-05-09T10:47:54.078Z,13.50
2024-05-09T10:48:54.074Z,15.30
2024-05-09T10:49:54.027Z,12.70
2024-05-09T10:50:53.904Z,15.70
2024-05-09T10:51:54.460Z,13.40
2024-05-09T10:52:53.915Z,10.30
2024-05-09T10:53:53.921Z,14.00
2024-05-09T10:54:53.912Z,14.40
2024-05-09T10:55:53.852Z,13.10
2024-05-09T10:56:53.875Z,13.20
2024-05-09T10:57:53.887Z,14.40
2024-05-09T10:58:54.800Z,13.50
2024-05-09T10:59:53.799Z,12.40
2024-05-09T11:00:54.931Z,10.50
2024-05-09T11:01:53.848Z,13.80
2024-05-09T11:02:53.852Z,12.50
2024-05-09T11:03:54.015Z,11.20
2024-05-09T11:04:53.936Z,12.50
2024-05-09T11:05:53.828Z,13.20
2024-05-09T11:06:53.796Z,10.80
2024-05-09T11:07:53.726Z,17.10
2024-05-09T11:08:53.718Z,10.70
2024-05-09T11:09:53.780Z,11.90
2024-05-09T11:10:53.769Z,14.30
2024-05-09T11:11:53.696Z,13.50
2024-05-09T11:12:53.714Z,10.80
2024-05-09T11:13:53.635Z,13.90
2024-05-09T11:14:53.665Z,10.80
2024-05-09T11:15:54.467Z,12.00
2024-05-09T11:16:53.646Z,11.70
2024-05-09T11:17:53.645Z,9.70
2024-05-09T11:18:53.702Z,11.80
2024-05-09T11:19:53.617Z,9.40
2024-05-09T11:20:53.589Z,9.20
2024-05-09T11:21:53.593Z,8.20
2024-05-09T11:22:53.561Z,8.80
2024-05-09T11:23:53.533Z,10.30
2024-05-09T11:24:53.629Z,7.60
2024-05-09T11:25:53.554Z,8.50
2024-05-09T11:26:53.534Z,9.40
2024-05-09T11:27:53.581Z,9.70
2024-05-09T11:28:53.466Z,8.60
2024-05-09T11:29:53.487Z,7.60
2024-05-09T11:30:53.494Z,8.60
2024-05-09T11:31:53.866Z,9.20
2024-05-09T11:32:54.571Z,8.20
2024-05-09T11:33:53.525Z,8.70
2024-05-09T11:34:53.845Z,8.20
2024-05-09T11:35:55.322Z,9.80
2024-05-09T11:36:53.432Z,9.80
2024-05-09T11:37:53.454Z,7.80
2024-05-09T11:38:53.317Z,9.20
2024-05-09T11:39:53.518Z,9.60
2024-05-09T11:40:53.519Z,8.80
2024-05-09T11:41:53.328Z,10.10
2024-05-09T11:42:53.652Z,7.50
2024-05-09T11:43:53.259Z,11.10
2024-05-09T11:44:53.898Z,8.50
2024-05-09T11:45:53.271Z,9.50
2024-05-09T11:46:53.251Z,8.40
2024-05-09T11:47:53.451Z,11.10
2024-05-09T11:48:53.478Z,10.20
2024-05-09T11:49:53.253Z,8.50
2024-05-09T11:50:53.249Z,10.40
2024-05-09T11:51:53.312Z,9.20
2024-05-09T11:52:53.169Z,9.50
2024-05-09T11:53:53.138Z,8.40
2024-05-09T11:54:53.206Z,10.10
2024-05-09T11:55:53.141Z,6.70
2024-05-09T11:56:53.170Z,7.80
2024-05-09T11:57:53.336Z,8.40
2024-05-09T11:58:53.105Z,9.00
2024-05-09T11:59:53.100Z,9.20
2024-05-09T12:00:53.180Z,7.80
2024-05-09T12:01:53.217Z,6.80
2024-05-09T12:02:53.032Z,5.60
2024-05-09T12:03:53.206Z,4.10
2024-05-09T12:04:53.614Z,4.60
2024-05-09T12:05:53.003Z,4.00
2024-05-09T12:06:53.049Z,2.90
2024-05-09T12:07:52.949Z,2.20
2024-05-09T12:08:52.946Z,3.10
2024-05-09T12:09:52.983Z,2.60
2024-05-09T12:10:53.277Z,2.80
2024-05-09T12:11:53.813Z,2.30
2024-05-09T12:12:52.929Z,2.80
2024-05-09T12:13:52.896Z,3.30
2024-05-09T12:14:52.896Z,2.30
2024-05-09T12:15:52.880Z,2.30
2024-05-09T12:16:52.918Z,2.70
2024-05-09T12:17:53.003Z,2.10
2024-05-09T12:18:52.953Z,2.20
2024-05-09T12:19:52.804Z,2.30
2024-05-09T12:20:52.775Z,2.00
2024-05-09T12:21:52.839Z,2.40
2024-05-09T12:22:52.803Z,1.80
2024-05-09T12:23:52.731Z,2.30
2024-05-09T12:24:52.769Z,1.70
2024-05-09T12:25:52.717Z,1.90
2024-05-09T12:26:52.736Z,2.00
2024-05-09T12:27:52.733Z,1.80
2024-05-09T12:28:52.678Z,2.30
2024-05-09T12:29:52.656Z,2.10
2024-05-09T12:30:53.340Z,1.80
2024-05-09T12:31:52.658Z,1.70
2024-05-09T12:32:52.828Z,1.40
2024-05-09T12:33:52.684Z,1.60
2024-05-09T12:34:53.752Z,2.00
2024-05-09T12:35:52.577Z,1.90
2024-05-09T12:36:52.635Z,2.50
2024-05-09T12:37:52.550Z,2.10
2024-05-09T12:38:52.592Z,2.30
2024-05-09T12:39:53.331Z,1.60
2024-05-09T12:40:52.743Z,1.70
2024-05-09T12:41:52.516Z,2.30
2024-05-09T12:42:52.485Z,1.70
2024-05-09T14:42:03.458Z,1.70
2024-05-09T14:43:04.544Z,1.60
2024-05-09T14:44:04.470Z,1.60